Latest Weather Observations for Holsworthy

IDN60901

Issued at 2:41 pm EDT Monday 20 February 2017 (issued every 10 minutes, with the page automatically refreshed every 10 minutes)

About weather observations | Map of Sydney area stations | Latest observations for Sydney area | Other Formats
Station Details ID: 066161 Name: HOLSWORTHY AERODROME AWS Lat: -33.99 Lon: 150.95 Height: 68.16 m
Data from the previous 72 hours. | See also: Recent months at Holsworthy
Date/Time
EDT
Temp
°C
App
Temp
°C
Dew
Point
°C
Rel
Hum
%
Delta-T
°C
Wind Press
QNH
hPa
Press
MSL
hPa
Rain since
9am
mm
Dir  Spd
km/h
Gust
km/h
Spd
kts
Gust
kts
20/02:30pm 26.8 22.0 0.5 18 12.4 W 15 30 8 16 1010.1 1009.8 0.0
20/02:00pm 26.3 21.2 0.9 19 12.0 W 17 37 9 20 1010.2 1009.9 0.0
20/01:30pm 25.2 20.5 0.7 20 11.5 WNW 15 28 8 15 1010.4 1010.1 0.0
20/01:00pm 24.5 18.4 0.1 20 11.2 W 22 35 12 19 1010.8 1010.5 0.0
20/12:30pm 23.9 18.2 0.3 21 10.9 W 20 39 11 21 1010.8 1010.5 0.0
20/12:00pm 22.8 15.4 -0.6 21 10.5 W 28 43 15 23 1010.8 1010.5 0.0
20/11:30am 22.5 16.7 2.1 26 9.6 W 22 39 12 21 1010.9 1010.6 0.0
20/11:01am 21.7 14.4 0.3 24 9.7 WSW 28 46 15 25 1011.1 1010.8 0.0
20/11:00am 21.8 14.3 1.5 26 9.4 WSW 30 46 16 25 1011.1 1010.8 0.0
20/10:30am 21.2 14.6 2.0 28 8.9 W 26 41 14 22 1011.3 1011.0 0.0
20/10:00am 20.0 13.8 1.9 30 8.3 W 24 39 13 21 1011.5 1011.2 0.0
20/09:30am 19.3 12.7 2.2 32 7.9 W 26 43 14 23 1011.4 1011.1 0.0
20/09:00am 18.9 13.7 3.5 36 7.3 WSW 20 35 11 19 1011.4 1011.1 0.0
20/08:30am 18.6 14.3 5.1 41 6.6 W 17 26 9 14 1011.5 1011.2 0.0
20/08:00am 17.8 14.8 6.0 46 5.8 WNW 11 20 6 11 1011.3 1011.0 0.0
20/07:30am 17.0 14.9 6.8 51 5.1 WSW 7 11 4 6 1011.0 1010.7 0.0
20/07:00am 16.5 12.4 6.3 51 5.0 W 17 24 9 13 1010.7 1010.4 0.0
20/06:30am 16.2 13.9 5.5 49 5.1 SW 7 15 4 8 1010.3 1010.0 0.0
20/06:00am 16.8 10.8 5.1 46 5.6 WSW 26 39 14 21 1009.9 1009.6 0.0
20/05:30am 16.8 13.2 4.8 45 5.7 W 13 20 7 11 1009.3 1009.0 0.0
20/05:00am 16.2 13.6 4.3 45 5.6 W 7 13 4 7 1009.1 1008.8 0.0
20/04:30am 16.9 14.0 4.6 44 5.8 W 9 15 5 8 1008.6 1008.3 0.0
20/04:00am 16.2 13.8 5.2 48 5.3 W 7 11 4 6 1008.4 1008.1 0.0
20/03:30am 17.4 12.9 4.0 41 6.3 W 17 22 9 12 1007.9 1007.6 0.0
20/03:00am 17.6 13.9 4.2 41 6.4 W 13 24 7 13 1007.6 1007.3 0.0
20/02:30am 17.4 13.6 5.7 46 5.7 WSW 15 24 8 13 1007.4 1007.1 0.0
20/02:00am 17.6 14.5 7.1 50 5.3 W 13 17 7 9 1007.2 1006.9 0.0
20/01:30am 17.1 15.5 11.4 69 3.1 WSW 11 13 6 7 1007.3 1007.0 0.0
20/01:00am 17.4 16.6 13.9 80 2.0 WSW 11 15 6 8 1007.1 1006.8 0.0
20/12:30am 16.7 16.9 14.2 85 1.4 WSW 6 9 3 5 1007.2 1006.9 0.0
20/12:00am 17.3 17.3 14.2 82 1.8 SW 7 9 4 5 1007.2 1006.9 0.0
 
Date/Time
EDT
Temp
°C
App
Temp
°C
Dew
Point
°C
Rel
Hum
%
Delta-T
°C
Wind Press
QNH
hPa
Press
MSL
hPa
Rain since
9am
mm
Dir  Spd
km/h
Gust
km/h
Spd
kts
Gust
kts
19/11:30pm 17.7 17.2 13.8 78 2.2 WSW 9 11 5 6 1007.2 1006.9 0.0
19/11:00pm 17.9 17.1 12.8 72 2.9 WSW 9 13 5 7 1007.2 1006.9 0.0
19/10:30pm 18.0 17.1 12.5 70 3.1 SW 9 11 5 6 1007.4 1007.1 0.0
19/10:00pm 18.6 17.5 12.1 66 3.6 SW 9 13 5 7 1006.8 1006.5 0.0
19/09:30pm 19.2 18.4 12.9 67 3.6 SW 9 15 5 8 1006.2 1005.9 0.0
19/09:00pm 20.0 17.2 12.7 63 4.1 SSW 19 30 10 16 1006.6 1006.3 0.0
19/08:30pm 21.9 23.1 17.3 75 2.8 S 7 11 4 6 1006.5 1006.2 0.0
19/08:00pm 22.3 23.0 17.0 72 3.3 E 9 13 5 7 1005.9 1005.6 0.0
19/07:30pm 22.6 22.5 16.9 70 3.5 ESE 13 19 7 10 1006.1 1005.8 0.0
19/07:00pm 22.7 21.3 16.9 70 3.6 E 20 28 11 15 1005.6 1005.3 0.0
19/06:30pm 23.0 21.6 17.0 69 3.7 E 20 30 11 16 1005.3 1005.0 0.0
19/06:00pm 23.2 21.1 16.3 65 4.2 E 22 33 12 18 1005.3 1005.0 0.0
19/05:30pm 24.0 22.7 15.8 60 5.0 E 17 28 9 15 1005.0 1004.7 0.0
19/05:00pm 24.5 22.6 15.7 58 5.4 E 20 32 11 17 1004.9 1004.6 0.0
19/04:30pm 24.6 21.8 14.4 53 6.1 ESE 22 32 12 17 1005.0 1004.7 0.0
19/04:00pm 24.8 22.2 14.9 54 6.0 E 22 33 12 18 1005.0 1004.7 0.0
19/03:30pm 26.1 24.8 15.8 53 6.3 ENE 17 24 9 13 1005.3 1005.0 0.0
19/03:00pm 26.2 25.3 15.9 53 6.3 E 15 26 8 14 1005.8 1005.5 0.0
19/02:30pm 25.9 24.8 14.4 49 6.9 E 13 22 7 12 1006.0 1005.7 0.0
19/02:00pm 25.9 23.5 12.7 44 7.7 NE 17 24 9 13 1006.6 1006.3 0.0
19/01:30pm 24.8 23.6 10.3 40 8.1 WSW 7 15 4 8 1007.1 1006.8 0.0
19/01:00pm 24.3 23.7 11.6 45 7.2 E 6 11 3 6 1007.5 1007.2 0.0
19/12:30pm 23.3 21.9 11.0 46 6.9 N 9 15 5 8 1008.1 1007.8 0.0
19/12:00pm 23.4 22.5 12.7 51 6.2 SW 9 15 5 8 1008.6 1008.3 0.0
19/11:30am 22.8 21.5 13.8 57 5.3 WSW 13 17 7 9 1009.0 1008.7 0.0
19/11:00am 21.8 21.3 13.9 61 4.6 W 9 19 5 10 1009.2 1008.9 0.0
19/10:30am 21.6 21.0 14.5 64 4.2 SW 11 19 6 10 1009.2 1008.9 0.0
19/10:00am 20.3 18.9 14.4 69 3.4 SW 15 20 8 11 1009.3 1009.0 0.0
19/09:30am 19.4 16.9 14.2 72 3.0 WSW 20 26 11 14 1009.2 1008.9 0.0
19/09:00am 19.1 18.1 14.6 75 2.6 SW 13 19 7 10 1009.5 1009.2 2.6
19/08:30am 18.9 18.2 15.4 80 2.1 SW 13 20 7 11 1009.0 1008.7 2.6
19/08:00am 17.9 17.1 15.2 84 1.6 SW 13 19 7 10 1009.0 1008.7 2.6
19/07:30am 17.3 16.8 14.8 85 1.4 WSW 11 15 6 8 1008.9 1008.6 2.6
19/07:00am 16.8 16.6 14.6 87 1.3 WSW 9 13 5 7 1008.8 1008.5 2.6
19/06:30am 16.8 16.1 14.4 86 1.4 SW 11 15 6 8 1008.2 1007.9 2.6
19/06:00am 17.0 16.4 14.6 86 1.4 SW 11 19 6 10 1007.8 1007.5 2.6
19/05:30am 17.5 17.5 15.1 86 1.4 SW 9 15 5 8 1007.6 1007.3 2.6
19/05:00am 17.5 16.3 15.0 85 1.5 SSW 15 20 8 11 1007.0 1006.7 2.6
19/04:30am 18.2 17.2 15.5 84 1.6 SSW 15 24 8 13 1006.9 1006.6 2.6
19/04:26am 18.2 17.5 15.5 84 1.6 SSW 13 22 7 12 1006.9 1006.6 2.6
19/04:00am 18.7 17.9 16.1 85 1.6 SSW 15 20 8 11 1007.4 1007.1 2.6
19/03:46am 18.9 18.6 16.5 86 1.4 SW 13 22 7 12 1007.2 1006.9 2.6
19/03:30am 19.1 19.4 16.9 87 1.3 SSW 11 19 6 10 1006.6 1006.3 2.6
19/03:00am 19.2 19.0 16.8 86 1.5 SSW 13 20 7 11 1006.6 1006.3 2.6
19/02:30am 19.5 20.4 17.6 89 1.2 S 9 15 5 8 1006.4 1006.1 2.6
19/02:00am 19.7 21.4 18.0 90 1.1 S 6 9 3 5 1006.5 1006.2 2.6
19/01:30am 19.7 21.4 18.4 92 0.8 S 7 13 4 7 1006.9 1006.6 2.6
19/01:02am 19.7 22.3 18.5 93 0.7 SW 2 7 1 4 1006.8 1006.5 2.6
19/01:00am 19.6 21.8 18.4 93 0.7 SW 4 7 2 4 1006.8 1006.5 2.6
19/12:30am 20.0 21.9 19.0 94 0.6 WSW 7 9 4 5 1006.7 1006.4 2.6
19/12:26am 20.0 21.8 18.8 93 0.8 WSW 7 7 4 4 1006.7 1006.4 2.6
19/12:00am 20.2 22.3 19.0 93 0.8 WNW 6 6 3 3 1007.0 1006.7 2.6
 
Date/Time
EDT
Temp
°C
App
Temp
°C
Dew
Point
°C
Rel
Hum
%
Delta-T
°C
Wind Press
QNH
hPa
Press
MSL
hPa
Rain since
9am
mm
Dir  Spd
km/h
Gust
km/h
Spd
kts
Gust
kts
18/11:30pm 20.3 22.2 19.0 92 0.8 W 7 9 4 5 1006.9 1006.6 2.6
18/11:00pm 20.7 23.9 18.8 89 1.2 CALM 0 2 0 1 1007.1 1006.8 2.6
18/10:30pm 21.0 22.9 18.9 88 1.3 WSW 7 9 4 5 1007.6 1007.3 2.6
18/10:00pm 21.4 23.3 19.0 86 1.5 WNW 7 9 4 5 1007.3 1007.0 2.6
18/09:30pm 21.4 23.3 19.0 86 1.5 WSW 7 11 4 6 1007.1 1006.8 2.6
18/09:00pm 21.5 21.9 18.9 85 1.6 SSE 15 24 8 13 1006.2 1005.9 2.6
18/08:30pm 21.4 22.0 18.6 84 1.8 SE 13 20 7 11 1006.1 1005.8 2.6
18/08:00pm 20.9 21.4 18.3 85 1.6 S 13 19 7 10 1005.9 1005.6 2.6
18/07:30pm 20.6 20.8 18.5 88 1.3 S 15 20 8 11 1005.9 1005.6 2.6
18/07:00pm 20.5 20.7 18.6 89 1.2 S 15 20 8 11 1005.9 1005.6 2.6
18/06:30pm 20.6 18.9 18.0 85 1.6 SSE 24 35 13 19 1005.8 1005.5 2.4
18/06:00pm 21.6 20.0 18.4 82 2.0 SSE 24 39 13 21 1005.8 1005.5 2.2
18/05:30pm 23.1 23.1 19.7 81 2.2 SE 19 28 10 15 1005.1 1004.8 2.2
18/05:18pm 22.5 22.3 19.3 82 2.0 SSE 19 26 10 14 1004.8 1004.5 2.2
18/05:05pm 22.5 21.9 19.7 84 1.8 SSE 22 32 12 17 1004.5 1004.2 2.2
18/05:00pm 22.6 21.9 19.4 82 2.1 SSE 22 39 12 21 1004.7 1004.4 2.0
18/04:30pm 24.3 26.0 21.0 82 2.2 SE 13 22 7 12 1005.2 1004.9 1.8
18/04:25pm 24.4 26.7 21.3 83 2.0 SE 11 22 6 12 1005.1 1004.8 1.8
18/04:06pm 24.0 25.1 20.5 81 2.3 ESE 15 24 8 13 1004.2 1003.9 1.2
18/04:00pm 23.8 23.8 19.7 78 2.7 ESE 19 30 10 16 1004.3 1004.0 1.0
18/03:30pm 26.0 24.5 17.6 60 5.3 ESE 22 32 12 17 1003.7 1003.4 0.0
18/03:00pm 27.9 26.5 18.9 58 5.8 ESE 24 32 13 17 1004.4 1004.1 0.0
18/02:30pm 27.6 26.2 18.9 59 5.6 SE 24 37 13 20 1005.1 1004.8 0.0
18/02:00pm 27.3 26.0 19.1 61 5.3 SE 24 32 13 17 1005.4 1005.1 0.0
18/01:30pm 27.1 25.9 18.4 59 5.6 ESE 22 30 12 16 1005.8 1005.5 0.0
18/01:00pm 26.9 26.2 18.7 60 5.3 SSE 20 26 11 14 1006.0 1005.7 0.0
18/12:30pm 27.5 28.0 20.1 64 4.9 SE 17 28 9 15 1006.2 1005.9 0.0
18/12:00pm 26.4 26.3 19.5 66 4.5 SSE 19 24 10 13 1006.3 1006.0 0.0
18/11:30am 26.3 25.3 19.7 67 4.3 SE 24 30 13 16 1006.5 1006.2 0.0
18/11:00am 25.9 25.9 19.8 69 4.0 SSE 19 28 10 15 1007.1 1006.8 0.0
18/10:30am 25.7 26.1 19.8 70 3.8 SE 17 26 9 14 1007.3 1007.0 0.0
18/10:00am 25.2 25.6 19.8 72 3.5 SE 17 24 9 13 1007.1 1006.8 0.0
18/09:30am 24.8 25.2 19.8 74 3.2 ESE 17 24 9 13 1006.8 1006.5 0.0
18/09:00am 23.9 24.5 19.4 76 2.9 ESE 15 20 8 11 1006.9 1006.6 14.4
18/08:30am 22.9 23.5 19.5 81 2.2 SE 15 20 8 11 1006.7 1006.4 14.4
18/08:00am 22.3 23.9 19.1 82 2.0 SSE 9 11 5 6 1006.3 1006.0 14.4
18/07:30am 21.6 22.8 19.0 85 1.6 S 11 13 6 7 1005.9 1005.6 14.4
18/07:00am 21.1 21.8 18.9 87 1.4 SSW 13 20 7 11 1006.0 1005.7 14.4
18/06:30am 20.9 22.4 18.8 88 1.3 WSW 9 11 5 6 1005.4 1005.1 14.4
18/06:00am 20.9 23.7 18.8 88 1.3 WSW 2 9 1 5 1004.7 1004.4 14.4
18/05:30am 20.7 22.2 18.8 89 1.2 WSW 9 11 5 6 1005.2 1004.9 14.4
18/05:00am 20.7 22.5 18.8 89 1.2 W 7 9 4 5 1005.3 1005.0 14.4
18/04:30am 20.6 22.6 18.7 89 1.2 W 6 7 3 4 1005.7 1005.4 14.4
18/04:00am 21.0 24.1 18.6 86 1.5 CALM 0 2 0 1 1005.9 1005.6 14.4
18/03:30am 21.2 23.0 18.8 86 1.5 WSW 7 13 4 7 1006.6 1006.3 14.4
18/03:00am 22.1 23.8 18.5 80 2.3 NNW 7 9 4 5 1006.4 1006.1 14.4
18/02:30am 21.9 23.3 18.7 82 2.0 NNW 9 11 5 6 1006.6 1006.3 14.4
18/02:00am 21.9 23.8 18.9 83 1.9 WNW 7 11 4 6 1007.3 1007.0 14.4
18/01:30am 21.7 23.8 18.9 84 1.8 NW 6 9 3 5 1007.6 1007.3 14.4
18/01:00am 21.5 23.7 19.1 86 1.5 WNW 6 7 3 4 1008.2 1007.9 14.4
18/12:30am 21.0 22.7 19.3 90 1.1 W 9 11 5 6 1008.7 1008.4 14.4
18/12:00am 20.9 22.2 19.4 91 1.0 WSW 11 13 6 7 1008.9 1008.6 14.4
 
Date/Time
EDT
Temp
°C
App
Temp
°C
Dew
Point
°C
Rel
Hum
%
Delta-T
°C
Wind Press
QNH
hPa
Press
MSL
hPa
Rain since
9am
mm
Dir  Spd
km/h
Gust
km/h
Spd
kts
Gust
kts
17/11:30pm 20.9 22.7 19.6 92 0.8 WSW 9 11 5 6 1009.2 1008.9 14.4
17/11:00pm 20.9 22.7 19.6 92 0.8 WSW 9 11 5 6 1009.3 1009.0 14.4
17/10:30pm 21.2 23.5 19.8 92 0.9 WSW 7 9 4 5 1009.6 1009.3 14.4
17/10:00pm 21.5 25.0 19.6 89 1.2 CALM 0 6 0 3 1009.6 1009.3 14.4
17/09:30pm 21.6 23.9 19.9 90 1.1 N 7 9 4 5 1009.6 1009.3 14.4
17/09:00pm 22.1 25.6 19.6 86 1.6 CALM 0 0 0 0 1009.2 1008.9 14.4
17/08:30pm 22.5 24.7 19.7 84 1.8 ENE 7 11 4 6 1009.0 1008.7 14.4
17/08:00pm 23.0 26.0 20.0 83 1.9 WSW 4 6 2 3 1008.5 1008.2 14.4
17/07:30pm 23.3 26.1 19.7 80 2.3 N 4 9 2 5 1007.9 1007.6 14.4
17/07:00pm 23.6 24.5 19.3 77 2.8 ENE 13 22 7 12 1007.2 1006.9 14.4
17/06:30pm 24.2 25.1 19.3 74 3.1 NNE 13 19 7 10 1007.7 1007.4 14.4
17/06:00pm 24.7 25.9 19.1 71 3.6 ENE 11 13 6 7 1007.4 1007.1 14.4
17/05:30pm 24.6 24.9 20.3 77 2.8 NNE 19 35 10 19 1007.7 1007.4 14.4
17/05:00pm 23.2 26.3 21.5 90 1.1 SSW 7 11 4 6 1007.1 1006.8 14.4
17/04:59pm 23.1 26.1 21.2 89 1.2 SSW 7 11 4 6 1007.1 1006.8 14.4
17/04:40pm 22.7 25.2 20.2 86 1.6 SSW 7 11 4 6 1007.1 1006.8 14.4
17/04:30pm 22.7 23.6 20.0 85 1.7 WSW 15 24 8 13 1006.6 1006.3 14.2
17/04:00pm 22.3 23.8 19.8 86 1.6 NE 11 24 6 13 1006.5 1006.2 14.2
17/03:47pm 22.6 24.1 19.8 84 1.8 NNE 11 20 6 11 1006.1 1005.8 14.2
17/03:30pm 21.7 22.9 19.1 85 1.6 W 11 20 6 11 1006.8 1006.5 13.2
17/03:04pm 24.5 21.3 16.2 60 5.1 SSW 28 59 15 32 1007.7 1007.4 2.6
17/03:00pm 25.7 23.8 18.6 65 4.5 SSW 26 39 14 21 1007.3 1007.0 0.4
17/02:59pm 26.0 23.6 18.2 62 4.9 SSW 28 43 15 23 1007.3 1007.0 0.4
17/02:46pm 30.8 29.7 17.8 45 8.3 S 20 46 11 25 1006.8 1006.5 0.0

Latest Capital City Observations: Canberra | Sydney | Melbourne | Brisbane | Adelaide | Perth | Hobart | Darwin

Other Formats:

Comma delimited format used in spreadsheet applications
http://www.bom.gov.au/fwo/IDN60901/IDN60901.95761.axf

JavaScript Object Notation format (JSON) in row-major order
http://www.bom.gov.au/fwo/IDN60901/IDN60901.95761.json